ROMMA est une association bénévole à but non lucratif. Votre soutien est indispensable : ADHERER à ROMMA ou FAIRE un DON

Briord - (01, Ain)

Bugey (281 m)   Longitude: 05° 29' 13" E   Latitude: 45° 46' 37" N Station partenaire n°15
 

Détail journalier du     <<     >>

Température Precipitation Humidité Pression Vent Dir Rafale Dir. rafale Ensol.
Heure (°C) (mm) (%) (hPa) (km/h) (km/h) (min)
01:00 -2.4094102200---0
02:00 -2.0094102300---0
03:00 -2.1094102300---0
04:00 -2.3094102300---0
05:00 -2.8094102300---0
06:00 -3.5094102300---0
07:00 -3.2094102300---0
08:00 -3.3094102400---0
09:00 -2.9094102500---20
10:00 -0.4095102500---50
11:00 1.10.293102600---60
12:00 1.6093102600---50
13:00 2.8092102500---50
14:00 3.4092102500---25
15:00 4.1090102500---50
16:00 2.6091102500---20
17:00 0.2093102500---0
18:00 -0.7094102500---0
19:00 -1.0094102600---0
20:00 -1.8094102600---0
21:00 -1.8094102600---0
22:00 -2.0094102600---0
23:00 -2.1094102600---0
minuit -2.2095102600---0

Graphique du 05-12-2019

 

Serveur OMMA